sensor_id;sensor_type;location;lat;lon;timestamp;P1;durP1;ratioP1;P2;durP2;ratioP2
5752;SDS011;2901;42.140;24.760;2023-02-22T00:00:07;2.22;;;1.67;;
5752;SDS011;2901;42.140;24.760;2023-02-22T00:02:44;1.40;;;1.30;;
5752;SDS011;2901;42.140;24.760;2023-02-22T00:05:11;1.80;;;1.70;;
5752;SDS011;2901;42.140;24.760;2023-02-22T00:07:39;2.83;;;1.52;;
5752;SDS011;2901;42.140;24.760;2023-02-22T00:10:05;2.05;;;1.42;;
5752;SDS011;2901;42.140;24.760;2023-02-22T00:12:37;2.35;;;1.35;;
5752;SDS011;2901;42.140;24.760;2023-02-22T00:15:06;4.95;;;1.70;;
5752;SDS011;2901;42.140;24.760;2023-02-22T00:17:33;1.52;;;1.45;;
5752;SDS011;2901;42.140;24.760;2023-02-22T00:19:58;1.75;;;1.65;;
5752;SDS011;2901;42.140;24.760;2023-02-22T00:22:24;2.20;;;1.60;;
5752;SDS011;2901;42.140;24.760;2023-02-22T00:24:49;2.03;;;1.92;;
5752;SDS011;2901;42.140;24.760;2023-02-22T00:27:14;2.10;;;1.60;;
5752;SDS011;2901;42.140;24.760;2023-02-22T00:29:44;2.13;;;2.03;;
5752;SDS011;2901;42.140;24.760;2023-02-22T00:32:10;1.30;;;1.30;;
5752;SDS011;2901;42.140;24.760;2023-02-22T00:34:36;1.85;;;1.75;;
5752;SDS011;2901;42.140;24.760;2023-02-22T00:37:02;1.58;;;1.48;;
5752;SDS011;2901;42.140;24.760;2023-02-22T00:39:28;1.55;;;1.48;;
5752;SDS011;2901;42.140;24.760;2023-02-22T00:41:54;2.05;;;1.80;;
5752;SDS011;2901;42.140;24.760;2023-02-22T00:44:20;1.88;;;1.77;;
5752;SDS011;2901;42.140;24.760;2023-02-22T00:46:46;2.10;;;2.00;;
5752;SDS011;2901;42.140;24.760;2023-02-22T00:49:11;2.28;;;1.80;;
5752;SDS011;2901;42.140;24.760;2023-02-22T00:51:37;2.38;;;1.80;;
5752;SDS011;2901;42.140;24.760;2023-02-22T00:54:02;1.90;;;1.80;;
5752;SDS011;2901;42.140;24.760;2023-02-22T00:56:31;1.73;;;1.63;;
5752;SDS011;2901;42.140;24.760;2023-02-22T00:58:58;2.67;;;1.98;;
5752;SDS011;2901;42.140;24.760;2023-02-22T01:01:24;2.45;;;1.50;;
5752;SDS011;2901;42.140;24.760;2023-02-22T01:03:51;2.90;;;1.98;;
5752;SDS011;2901;42.140;24.760;2023-02-22T01:06:16;1.92;;;1.83;;
5752;SDS011;2901;42.140;24.760;2023-02-22T01:08:45;3.70;;;2.30;;
5752;SDS011;2901;42.140;24.760;2023-02-22T01:11:11;2.13;;;1.92;;
5752;SDS011;2901;42.140;24.760;2023-02-22T01:13:37;2.67;;;1.95;;
5752;SDS011;2901;42.140;24.760;2023-02-22T01:16:03;2.88;;;1.60;;
5752;SDS011;2901;42.140;24.760;2023-02-22T01:18:32;2.75;;;1.88;;
5752;SDS011;2901;42.140;24.760;2023-02-22T01:20:59;1.80;;;1.70;;
5752;SDS011;2901;42.140;24.760;2023-02-22T01:23:25;2.00;;;1.90;;
5752;SDS011;2901;42.140;24.760;2023-02-22T01:25:51;2.00;;;1.77;;
5752;SDS011;2901;42.140;24.760;2023-02-22T01:28:16;2.20;;;2.00;;
5752;SDS011;2901;42.140;24.760;2023-02-22T01:30:42;2.38;;;1.90;;
5752;SDS011;2901;42.140;24.760;2023-02-22T01:33:07;2.33;;;2.22;;
5752;SDS011;2901;42.140;24.760;2023-02-22T01:35:34;2.05;;;1.92;;
5752;SDS011;2901;42.140;24.760;2023-02-22T01:38:01;2.58;;;1.98;;
5752;SDS011;2901;42.140;24.760;2023-02-22T01:40:28;1.90;;;1.80;;
5752;SDS011;2901;42.140;24.760;2023-02-22T01:42:57;2.08;;;1.98;;
5752;SDS011;2901;42.140;24.760;2023-02-22T01:48:01;2.28;;;1.70;;
5752;SDS011;2901;42.140;24.760;2023-02-22T01:50:43;3.65;;;1.88;;
5752;SDS011;2901;42.140;24.760;2023-02-22T01:53:19;2.30;;;2.10;;
5752;SDS011;2901;42.140;24.760;2023-02-22T01:55:47;2.35;;;1.80;;
5752;SDS011;2901;42.140;24.760;2023-02-22T01:58:15;3.47;;;1.95;;
5752;SDS011;2901;42.140;24.760;2023-02-22T02:00:42;2.40;;;2.20;;
5752;SDS011;2901;42.140;24.760;2023-02-22T02:03:19;5.75;;;1.92;;
5752;SDS011;2901;42.140;24.760;2023-02-22T02:05:47;2.63;;;2.20;;
5752;SDS011;2901;42.140;24.760;2023-02-22T02:08:18;2.80;;;1.95;;
5752;SDS011;2901;42.140;24.760;2023-02-22T02:10:45;2.50;;;2.25;;
5752;SDS011;2901;42.140;24.760;2023-02-22T02:13:12;2.08;;;1.90;;
5752;SDS011;2901;42.140;24.760;2023-02-22T02:15:40;2.25;;;2.15;;
5752;SDS011;2901;42.140;24.760;2023-02-22T02:18:06;1.85;;;1.75;;
5752;SDS011;2901;42.140;24.760;2023-02-22T02:20:43;2.17;;;1.95;;
5752;SDS011;2901;42.140;24.760;2023-02-22T02:34:03;1.70;;;1.60;;
5752;SDS011;2901;42.140;24.760;2023-02-22T02:36:55;2.05;;;1.95;;
5752;SDS011;2901;42.140;24.760;2023-02-22T02:41:52;2.95;;;2.00;;
5752;SDS011;2901;42.140;24.760;2023-02-22T02:44:31;1.73;;;1.60;;
5752;SDS011;2901;42.140;24.760;2023-02-22T02:47:03;2.42;;;1.80;;
5752;SDS011;2901;42.140;24.760;2023-02-22T02:49:37;1.90;;;1.80;;
5752;SDS011;2901;42.140;24.760;2023-02-22T02:52:10;1.30;;;1.30;;
5752;SDS011;2901;42.140;24.760;2023-02-22T02:54:37;1.77;;;1.67;;
5752;SDS011;2901;42.140;24.760;2023-02-22T02:57:04;1.90;;;1.67;;
5752;SDS011;2901;42.140;24.760;2023-02-22T02:59:35;1.67;;;1.58;;
5752;SDS011;2901;42.140;24.760;2023-02-22T03:18:48;3.38;;;2.28;;
5752;SDS011;2901;42.140;24.760;2023-02-22T03:27:27;2.08;;;1.98;;
5752;SDS011;2901;42.140;24.760;2023-02-22T03:30:04;2.25;;;2.00;;
5752;SDS011;2901;42.140;24.760;2023-02-22T03:32:35;3.67;;;2.28;;
5752;SDS011;2901;42.140;24.760;2023-02-22T03:35:04;3.05;;;2.78;;
5752;SDS011;2901;42.140;24.760;2023-02-22T03:37:34;4.20;;;2.58;;
5752;SDS011;2901;42.140;24.760;2023-02-22T03:40:06;3.13;;;2.97;;
5752;SDS011;2901;42.140;24.760;2023-02-22T03:42:47;3.10;;;2.47;;
5752;SDS011;2901;42.140;24.760;2023-02-22T03:45:16;2.55;;;2.35;;
5752;SDS011;2901;42.140;24.760;2023-02-22T03:47:46;2.42;;;2.33;;
5752;SDS011;2901;42.140;24.760;2023-02-22T03:50:17;2.20;;;2.08;;
5752;SDS011;2901;42.140;24.760;2023-02-22T03:52:46;2.70;;;2.50;;
5752;SDS011;2901;42.140;24.760;2023-02-22T03:55:12;4.03;;;2.78;;
5752;SDS011;2901;42.140;24.760;2023-02-22T03:57:42;3.00;;;2.80;;
5752;SDS011;2901;42.140;24.760;2023-02-22T04:00:13;3.88;;;2.35;;
5752;SDS011;2901;42.140;24.760;2023-02-22T04:02:42;3.83;;;2.90;;
5752;SDS011;2901;42.140;24.760;2023-02-22T04:05:08;3.53;;;3.22;;
5752;SDS011;2901;42.140;24.760;2023-02-22T04:07:33;7.43;;;2.50;;
5752;SDS011;2901;42.140;24.760;2023-02-22T04:09:59;4.53;;;3.20;;
5752;SDS011;2901;42.140;24.760;2023-02-22T04:12:26;2.67;;;2.47;;
5752;SDS011;2901;42.140;24.760;2023-02-22T04:14:52;6.57;;;2.63;;
5752;SDS011;2901;42.140;24.760;2023-02-22T04:17:17;3.70;;;2.83;;
5752;SDS011;2901;42.140;24.760;2023-02-22T04:19:43;2.55;;;2.35;;
5752;SDS011;2901;42.140;24.760;2023-02-22T04:22:09;2.05;;;1.90;;
5752;SDS011;2901;42.140;24.760;2023-02-22T04:24:35;5.45;;;2.53;;
5752;SDS011;2901;42.140;24.760;2023-02-22T04:27:00;3.10;;;2.80;;
5752;SDS011;2901;42.140;24.760;2023-02-22T04:29:27;3.80;;;1.80;;
5752;SDS011;2901;42.140;24.760;2023-02-22T04:31:53;9.00;;;2.97;;
5752;SDS011;2901;42.140;24.760;2023-02-22T04:34:18;5.10;;;2.50;;
5752;SDS011;2901;42.140;24.760;2023-02-22T04:36:44;2.85;;;2.45;;
5752;SDS011;2901;42.140;24.760;2023-02-22T04:39:10;3.35;;;2.00;;
5752;SDS011;2901;42.140;24.760;2023-02-22T04:41:35;6.45;;;2.85;;
5752;SDS011;2901;42.140;24.760;2023-02-22T04:44:00;2.30;;;2.10;;
5752;SDS011;2901;42.140;24.760;2023-02-22T04:46:26;4.43;;;3.20;;
5752;SDS011;2901;42.140;24.760;2023-02-22T04:48:52;2.72;;;2.53;;
5752;SDS011;2901;42.140;24.760;2023-02-22T04:51:18;5.88;;;2.03;;
5752;SDS011;2901;42.140;24.760;2023-02-22T04:53:44;2.63;;;1.85;;
5752;SDS011;2901;42.140;24.760;2023-02-22T04:56:10;1.58;;;1.48;;
5752;SDS011;2901;42.140;24.760;2023-02-22T04:58:35;2.03;;;1.80;;
5752;SDS011;2901;42.140;24.760;2023-02-22T05:01:01;2.00;;;1.50;;
5752;SDS011;2901;42.140;24.760;2023-02-22T05:03:27;2.42;;;1.65;;
5752;SDS011;2901;42.140;24.760;2023-02-22T05:05:52;4.65;;;1.77;;
5752;SDS011;2901;42.140;24.760;2023-02-22T05:08:18;1.90;;;1.80;;
5752;SDS011;2901;42.140;24.760;2023-02-22T05:10:43;3.28;;;1.60;;
5752;SDS011;2901;42.140;24.760;2023-02-22T05:13:08;1.23;;;1.20;;
5752;SDS011;2901;42.140;24.760;2023-02-22T05:15:34;3.30;;;1.20;;
5752;SDS011;2901;42.140;24.760;2023-02-22T05:17:59;1.60;;;1.20;;
5752;SDS011;2901;42.140;24.760;2023-02-22T05:20:26;1.52;;;1.42;;
5752;SDS011;2901;42.140;24.760;2023-02-22T05:22:54;1.30;;;1.20;;
5752;SDS011;2901;42.140;24.760;2023-02-22T05:25:20;2.55;;;1.70;;
5752;SDS011;2901;42.140;24.760;2023-02-22T05:27:53;0.90;;;0.90;;
5752;SDS011;2901;42.140;24.760;2023-02-22T05:30:25;1.67;;;1.33;;
5752;SDS011;2901;42.140;24.760;2023-02-22T05:32:52;1.00;;;1.00;;
5752;SDS011;2901;42.140;24.760;2023-02-22T05:35:21;0.95;;;0.95;;
5752;SDS011;2901;42.140;24.760;2023-02-22T05:37:47;2.15;;;1.40;;
5752;SDS011;2901;42.140;24.760;2023-02-22T05:40:18;1.10;;;1.00;;
5752;SDS011;2901;42.140;24.760;2023-02-22T05:42:47;1.35;;;1.27;;
5752;SDS011;2901;42.140;24.760;2023-02-22T05:45:14;4.40;;;1.58;;
5752;SDS011;2901;42.140;24.760;2023-02-22T05:47:40;1.30;;;1.20;;
5752;SDS011;2901;42.140;24.760;2023-02-22T05:50:06;1.55;;;1.40;;
5752;SDS011;2901;42.140;24.760;2023-02-22T05:52:32;1.65;;;1.40;;
5752;SDS011;2901;42.140;24.760;2023-02-22T05:54:58;3.15;;;1.45;;
5752;SDS011;2901;42.140;24.760;2023-02-22T05:57:23;3.90;;;1.70;;
5752;SDS011;2901;42.140;24.760;2023-02-22T05:59:49;1.30;;;1.20;;
5752;SDS011;2901;42.140;24.760;2023-02-22T06:02:14;2.88;;;1.42;;
5752;SDS011;2901;42.140;24.760;2023-02-22T06:04:42;1.02;;;1.02;;
5752;SDS011;2901;42.140;24.760;2023-02-22T06:07:08;1.30;;;1.20;;
5752;SDS011;2901;42.140;24.760;2023-02-22T06:09:34;1.50;;;1.40;;
5752;SDS011;2901;42.140;24.760;2023-02-22T06:11:59;2.70;;;1.20;;
5752;SDS011;2901;42.140;24.760;2023-02-22T06:14:24;5.45;;;1.50;;
5752;SDS011;2901;42.140;24.760;2023-02-22T06:16:51;1.55;;;1.45;;
5752;SDS011;2901;42.140;24.760;2023-02-22T06:19:17;1.35;;;1.15;;
5752;SDS011;2901;42.140;24.760;2023-02-22T06:21:50;2.97;;;1.75;;
5752;SDS011;2901;42.140;24.760;2023-02-22T06:24:16;2.70;;;1.48;;
5752;SDS011;2901;42.140;24.760;2023-02-22T06:26:42;1.65;;;1.42;;
5752;SDS011;2901;42.140;24.760;2023-02-22T06:29:07;2.10;;;1.90;;
5752;SDS011;2901;42.140;24.760;2023-02-22T06:31:33;1.95;;;1.60;;
5752;SDS011;2901;42.140;24.760;2023-02-22T06:33:59;6.57;;;1.85;;
5752;SDS011;2901;42.140;24.760;2023-02-22T06:36:24;2.15;;;1.60;;
5752;SDS011;2901;42.140;24.760;2023-02-22T06:38:49;3.00;;;1.75;;
5752;SDS011;2901;42.140;24.760;2023-02-22T06:41:15;3.28;;;1.42;;
5752;SDS011;2901;42.140;24.760;2023-02-22T06:43:40;1.58;;;1.58;;
5752;SDS011;2901;42.140;24.760;2023-02-22T06:46:09;1.30;;;1.20;;
5752;SDS011;2901;42.140;24.760;2023-02-22T06:48:38;3.30;;;1.45;;
5752;SDS011;2901;42.140;24.760;2023-02-22T06:51:04;2.83;;;1.35;;
5752;SDS011;2901;42.140;24.760;2023-02-22T06:53:32;1.80;;;1.08;;
5752;SDS011;2901;42.140;24.760;2023-02-22T06:55:58;2.80;;;1.60;;
5752;SDS011;2901;42.140;24.760;2023-02-22T06:58:23;3.53;;;1.33;;
5752;SDS011;2901;42.140;24.760;2023-02-22T07:00:49;2.97;;;1.20;;
5752;SDS011;2901;42.140;24.760;2023-02-22T07:03:14;1.25;;;1.20;;
5752;SDS011;2901;42.140;24.760;2023-02-22T07:05:40;3.50;;;1.65;;
5752;SDS011;2901;42.140;24.760;2023-02-22T07:08:06;2.30;;;2.10;;
5752;SDS011;2901;42.140;24.760;2023-02-22T07:10:33;2.13;;;1.40;;
5752;SDS011;2901;42.140;24.760;2023-02-22T07:13:00;1.38;;;1.27;;
5752;SDS011;2901;42.140;24.760;2023-02-22T07:15:26;1.65;;;1.40;;
5752;SDS011;2901;42.140;24.760;2023-02-22T07:17:53;1.10;;;1.10;;
5752;SDS011;2901;42.140;24.760;2023-02-22T07:20:19;3.33;;;1.60;;
5752;SDS011;2901;42.140;24.760;2023-02-22T07:22:47;1.38;;;1.08;;
5752;SDS011;2901;42.140;24.760;2023-02-22T07:25:13;1.42;;;1.33;;
5752;SDS011;2901;42.140;24.760;2023-02-22T07:27:39;2.35;;;1.25;;
5752;SDS011;2901;42.140;24.760;2023-02-22T07:30:06;2.13;;;1.35;;
5752;SDS011;2901;42.140;24.760;2023-02-22T07:32:40;1.40;;;1.30;;
5752;SDS011;2901;42.140;24.760;2023-02-22T07:35:09;2.88;;;1.40;;
5752;SDS011;2901;42.140;24.760;2023-02-22T07:37:38;3.72;;;2.03;;
5752;SDS011;2901;42.140;24.760;2023-02-22T07:40:03;6.93;;;1.42;;
5752;SDS011;2901;42.140;24.760;2023-02-22T07:42:29;2.30;;;1.23;;
5752;SDS011;2901;42.140;24.760;2023-02-22T07:44:55;1.60;;;1.50;;
5752;SDS011;2901;42.140;24.760;2023-02-22T07:47:20;1.27;;;1.20;;
5752;SDS011;2901;42.140;24.760;2023-02-22T07:49:45;4.28;;;1.30;;
5752;SDS011;2901;42.140;24.760;2023-02-22T07:52:11;1.25;;;1.20;;
5752;SDS011;2901;42.140;24.760;2023-02-22T07:54:36;2.63;;;1.25;;
5752;SDS011;2901;42.140;24.760;2023-02-22T07:57:02;2.75;;;1.15;;
5752;SDS011;2901;42.140;24.760;2023-02-22T07:59:27;2.83;;;1.10;;
5752;SDS011;2901;42.140;24.760;2023-02-22T08:01:52;1.13;;;1.02;;
5752;SDS011;2901;42.140;24.760;2023-02-22T08:04:18;2.60;;;1.17;;
5752;SDS011;2901;42.140;24.760;2023-02-22T08:06:43;1.35;;;1.25;;
5752;SDS011;2901;42.140;24.760;2023-02-22T08:09:10;1.15;;;1.10;;
5752;SDS011;2901;42.140;24.760;2023-02-22T08:11:35;2.15;;;1.33;;
5752;SDS011;2901;42.140;24.760;2023-02-22T08:14:01;0.98;;;0.93;;
5752;SDS011;2901;42.140;24.760;2023-02-22T08:16:26;1.90;;;1.45;;
5752;SDS011;2901;42.140;24.760;2023-02-22T08:18:52;1.50;;;1.10;;
5752;SDS011;2901;42.140;24.760;2023-02-22T08:21:17;4.82;;;0.90;;
5752;SDS011;2901;42.140;24.760;2023-02-22T08:23:42;1.10;;;1.00;;
5752;SDS011;2901;42.140;24.760;2023-02-22T08:26:09;0.80;;;0.70;;
5752;SDS011;2901;42.140;24.760;2023-02-22T08:28:39;1.88;;;1.17;;
5752;SDS011;2901;42.140;24.760;2023-02-22T08:31:05;0.93;;;0.88;;
5752;SDS011;2901;42.140;24.760;2023-02-22T08:33:32;1.35;;;1.25;;
5752;SDS011;2901;42.140;24.760;2023-02-22T08:35:59;1.92;;;1.05;;
5752;SDS011;2901;42.140;24.760;2023-02-22T08:38:27;2.67;;;2.13;;
5752;SDS011;2901;42.140;24.760;2023-02-22T08:40:54;1.00;;;1.00;;
5752;SDS011;2901;42.140;24.760;2023-02-22T08:43:20;1.40;;;0.93;;
5752;SDS011;2901;42.140;24.760;2023-02-22T08:45:47;1.10;;;1.10;;
5752;SDS011;2901;42.140;24.760;2023-02-22T08:48:14;1.42;;;1.33;;
5752;SDS011;2901;42.140;24.760;2023-02-22T08:50:40;1.90;;;1.17;;
5752;SDS011;2901;42.140;24.760;2023-02-22T08:53:06;1.10;;;0.88;;
5752;SDS011;2901;42.140;24.760;2023-02-22T08:55:34;0.95;;;0.95;;
5752;SDS011;2901;42.140;24.760;2023-02-22T08:58:01;2.28;;;1.20;;
5752;SDS011;2901;42.140;24.760;2023-02-22T09:00:29;1.25;;;1.15;;
5752;SDS011;2901;42.140;24.760;2023-02-22T09:02:57;1.80;;;1.02;;
5752;SDS011;2901;42.140;24.760;2023-02-22T09:05:26;3.80;;;1.30;;
5752;SDS011;2901;42.140;24.760;2023-02-22T09:07:52;7.82;;;1.00;;
5752;SDS011;2901;42.140;24.760;2023-02-22T09:10:19;2.13;;;0.73;;
5752;SDS011;2901;42.140;24.760;2023-02-22T09:12:49;1.27;;;1.23;;
5752;SDS011;2901;42.140;24.760;2023-02-22T09:15:19;1.27;;;1.17;;
5752;SDS011;2901;42.140;24.760;2023-02-22T09:17:45;1.08;;;0.90;;
5752;SDS011;2901;42.140;24.760;2023-02-22T09:20:11;2.13;;;1.00;;
5752;SDS011;2901;42.140;24.760;2023-02-22T09:22:37;1.85;;;1.00;;
5752;SDS011;2901;42.140;24.760;2023-02-22T09:25:03;1.30;;;1.00;;
5752;SDS011;2901;42.140;24.760;2023-02-22T09:27:30;6.88;;;1.02;;
5752;SDS011;2901;42.140;24.760;2023-02-22T09:29:55;2.75;;;1.20;;
5752;SDS011;2901;42.140;24.760;2023-02-22T09:32:24;2.08;;;1.52;;
5752;SDS011;2901;42.140;24.760;2023-02-22T09:34:52;1.17;;;1.08;;
5752;SDS011;2901;42.140;24.760;2023-02-22T09:37:18;4.00;;;1.10;;
5752;SDS011;2901;42.140;24.760;2023-02-22T09:39:44;1.42;;;1.33;;
5752;SDS011;2901;42.140;24.760;2023-02-22T09:42:20;1.02;;;1.02;;
5752;SDS011;2901;42.140;24.760;2023-02-22T09:45:07;2.72;;;1.02;;
5752;SDS011;2901;42.140;24.760;2023-02-22T09:47:42;3.47;;;1.10;;
5752;SDS011;2901;42.140;24.760;2023-02-22T09:50:14;1.02;;;1.02;;
5752;SDS011;2901;42.140;24.760;2023-02-22T09:52:58;7.72;;;0.90;;
5752;SDS011;2901;42.140;24.760;2023-02-22T09:58:06;0.82;;;0.82;;
5752;SDS011;2901;42.140;24.760;2023-02-22T10:00:41;1.20;;;0.82;;
5752;SDS011;2901;42.140;24.760;2023-02-22T10:03:25;2.60;;;1.08;;
5752;SDS011;2901;42.140;24.760;2023-02-22T10:08:27;0.82;;;0.82;;
5752;SDS011;2901;42.140;24.760;2023-02-22T10:13:44;1.02;;;0.95;;
5752;SDS011;2901;42.140;24.760;2023-02-22T10:16:25;1.02;;;0.85;;
5752;SDS011;2901;42.140;24.760;2023-02-22T10:19:13;2.92;;;0.80;;
5752;SDS011;2901;42.140;24.760;2023-02-22T10:21:51;1.13;;;1.00;;
5752;SDS011;2901;42.140;24.760;2023-02-22T10:27:14;2.05;;;1.33;;
5752;SDS011;2901;42.140;24.760;2023-02-22T10:29:53;1.05;;;0.75;;
5752;SDS011;2901;42.140;24.760;2023-02-22T10:32:30;2.70;;;1.20;;
5752;SDS011;2901;42.140;24.760;2023-02-22T10:35:00;1.52;;;0.95;;
5752;SDS011;2901;42.140;24.760;2023-02-22T10:37:32;0.90;;;0.90;;
5752;SDS011;2901;42.140;24.760;2023-02-22T10:40:01;1.33;;;1.05;;
5752;SDS011;2901;42.140;24.760;2023-02-22T10:42:36;1.60;;;0.95;;
5752;SDS011;2901;42.140;24.760;2023-02-22T10:45:01;1.00;;;1.00;;
5752;SDS011;2901;42.140;24.760;2023-02-22T10:47:27;1.23;;;1.20;;
5752;SDS011;2901;42.140;24.760;2023-02-22T10:49:54;1.17;;;1.08;;
5752;SDS011;2901;42.140;24.760;2023-02-22T10:52:24;1.65;;;1.35;;
5752;SDS011;2901;42.140;24.760;2023-02-22T10:54:55;1.38;;;0.90;;
5752;SDS011;2901;42.140;24.760;2023-02-22T10:57:26;0.80;;;0.80;;
5752;SDS011;2901;42.140;24.760;2023-02-22T10:59:55;2.40;;;0.93;;
5752;SDS011;2901;42.140;24.760;2023-02-22T11:02:28;2.50;;;1.13;;
5752;SDS011;2901;42.140;24.760;2023-02-22T11:04:56;2.55;;;1.08;;
5752;SDS011;2901;42.140;24.760;2023-02-22T11:07:25;1.83;;;1.55;;
5752;SDS011;2901;42.140;24.760;2023-02-22T11:10:09;1.50;;;1.00;;
5752;SDS011;2901;42.140;24.760;2023-02-22T11:12:35;1.63;;;1.27;;
5752;SDS011;2901;42.140;24.760;2023-02-22T11:17:51;2.33;;;1.58;;
5752;SDS011;2901;42.140;24.760;2023-02-22T11:20:23;1.20;;;1.10;;
5752;SDS011;2901;42.140;24.760;2023-02-22T11:22:53;2.25;;;1.33;;
5752;SDS011;2901;42.140;24.760;2023-02-22T11:25:25;4.47;;;1.67;;
5752;SDS011;2901;42.140;24.760;2023-02-22T11:27:53;2.00;;;1.20;;
5752;SDS011;2901;42.140;24.760;2023-02-22T11:32:53;1.40;;;1.40;;
5752;SDS011;2901;42.140;24.760;2023-02-22T11:35:39;2.55;;;1.30;;
5752;SDS011;2901;42.140;24.760;2023-02-22T11:40:48;1.80;;;0.80;;
5752;SDS011;2901;42.140;24.760;2023-02-22T11:43:30;1.38;;;0.80;;
5752;SDS011;2901;42.140;24.760;2023-02-22T11:46:06;1.33;;;0.88;;
5752;SDS011;2901;42.140;24.760;2023-02-22T11:48:38;2.05;;;0.73;;
5752;SDS011;2901;42.140;24.760;2023-02-22T11:58:49;0.80;;;0.80;;
5752;SDS011;2901;42.140;24.760;2023-02-22T12:06:42;0.80;;;0.80;;
5752;SDS011;2901;42.140;24.760;2023-02-22T12:15:14;0.88;;;0.68;;
5752;SDS011;2901;42.140;24.760;2023-02-22T12:26:07;0.88;;;0.80;;
5752;SDS011;2901;42.140;24.760;2023-02-22T12:33:58;1.13;;;1.00;;
5752;SDS011;2901;42.140;24.760;2023-02-22T12:36:33;2.22;;;0.90;;
5752;SDS011;2901;42.140;24.760;2023-02-22T12:39:32;0.73;;;0.73;;
5752;SDS011;2901;42.140;24.760;2023-02-22T12:42:14;0.93;;;0.93;;
5752;SDS011;2901;42.140;24.760;2023-02-22T12:44:44;0.77;;;0.77;;
5752;SDS011;2901;42.140;24.760;2023-02-22T12:47:16;1.20;;;0.98;;
5752;SDS011;2901;42.140;24.760;2023-02-22T12:52:44;0.70;;;0.70;;
5752;SDS011;2901;42.140;24.760;2023-02-22T12:55:23;1.00;;;0.93;;
5752;SDS011;2901;42.140;24.760;2023-02-22T13:00:32;0.80;;;0.80;;
5752;SDS011;2901;42.140;24.760;2023-02-22T13:03:28;1.90;;;0.85;;
5752;SDS011;2901;42.140;24.760;2023-02-22T13:16:54;1.08;;;1.08;;
5752;SDS011;2901;42.140;24.760;2023-02-22T13:24:59;1.92;;;1.00;;
5752;SDS011;2901;42.140;24.760;2023-02-22T13:27:37;2.58;;;1.20;;
5752;SDS011;2901;42.140;24.760;2023-02-22T13:30:05;1.58;;;0.73;;
5752;SDS011;2901;42.140;24.760;2023-02-22T13:36:14;1.17;;;1.08;;
5752;SDS011;2901;42.140;24.760;2023-02-22T13:44:42;3.70;;;1.30;;
5752;SDS011;2901;42.140;24.760;2023-02-22T13:50:18;1.75;;;1.00;;
5752;SDS011;2901;42.140;24.760;2023-02-22T13:53:09;1.00;;;1.00;;
5752;SDS011;2901;42.140;24.760;2023-02-22T13:55:38;1.13;;;1.10;;
5752;SDS011;2901;42.140;24.760;2023-02-22T13:58:08;1.35;;;0.75;;
5752;SDS011;2901;42.140;24.760;2023-02-22T14:00:55;1.38;;;0.93;;
5752;SDS011;2901;42.140;24.760;2023-02-22T14:03:35;1.73;;;1.00;;
5752;SDS011;2901;42.140;24.760;2023-02-22T14:09:06;1.10;;;1.10;;
5752;SDS011;2901;42.140;24.760;2023-02-22T14:19:10;1.20;;;1.08;;
5752;SDS011;2901;42.140;24.760;2023-02-22T14:24:26;2.42;;;1.20;;
5752;SDS011;2901;42.140;24.760;2023-02-22T14:26:55;1.33;;;0.93;;
5752;SDS011;2901;42.140;24.760;2023-02-22T14:29:24;8.48;;;1.30;;
5752;SDS011;2901;42.140;24.760;2023-02-22T14:34:15;1.10;;;1.00;;
5752;SDS011;2901;42.140;24.760;2023-02-22T14:44:53;3.35;;;1.02;;
5752;SDS011;2901;42.140;24.760;2023-02-22T14:47:25;0.77;;;0.77;;
5752;SDS011;2901;42.140;24.760;2023-02-22T14:49:56;0.90;;;0.90;;
5752;SDS011;2901;42.140;24.760;2023-02-22T14:52:29;1.10;;;0.82;;
5752;SDS011;2901;42.140;24.760;2023-02-22T14:55:11;3.53;;;0.90;;
5752;SDS011;2901;42.140;24.760;2023-02-22T15:00:35;1.33;;;1.20;;
5752;SDS011;2901;42.140;24.760;2023-02-22T15:03:31;1.50;;;1.33;;
5752;SDS011;2901;42.140;24.760;2023-02-22T15:06:04;1.00;;;1.00;;
5752;SDS011;2901;42.140;24.760;2023-02-22T15:08:46;1.50;;;1.00;;
5752;SDS011;2901;42.140;24.760;2023-02-22T15:11:23;2.97;;;1.63;;
5752;SDS011;2901;42.140;24.760;2023-02-22T15:13:55;1.27;;;1.27;;
5752;SDS011;2901;42.140;24.760;2023-02-22T15:16:21;5.18;;;1.40;;
5752;SDS011;2901;42.140;24.760;2023-02-22T15:18:51;0.95;;;0.95;;
5752;SDS011;2901;42.140;24.760;2023-02-22T15:21:20;2.05;;;1.30;;
5752;SDS011;2901;42.140;24.760;2023-02-22T15:23:49;2.60;;;1.80;;
5752;SDS011;2901;42.140;24.760;2023-02-22T15:26:18;3.58;;;1.55;;
5752;SDS011;2901;42.140;24.760;2023-02-22T15:28:52;1.10;;;1.00;;
5752;SDS011;2901;42.140;24.760;2023-02-22T15:33:49;2.45;;;1.40;;
5752;SDS011;2901;42.140;24.760;2023-02-22T15:36:20;2.75;;;1.73;;
5752;SDS011;2901;42.140;24.760;2023-02-22T15:38:50;1.40;;;1.30;;
5752;SDS011;2901;42.140;24.760;2023-02-22T15:41:30;2.13;;;1.67;;
5752;SDS011;2901;42.140;24.760;2023-02-22T15:44:01;1.27;;;1.23;;
5752;SDS011;2901;42.140;24.760;2023-02-22T15:46:28;4.20;;;1.73;;
5752;SDS011;2901;42.140;24.760;2023-02-22T15:51:29;3.85;;;1.70;;
5752;SDS011;2901;42.140;24.760;2023-02-22T15:53:56;8.52;;;1.67;;
5752;SDS011;2901;42.140;24.760;2023-02-22T15:56:27;2.28;;;1.55;;
5752;SDS011;2901;42.140;24.760;2023-02-22T15:59:13;1.73;;;1.63;;
5752;SDS011;2901;42.140;24.760;2023-02-22T16:01:42;3.42;;;2.25;;
5752;SDS011;2901;42.140;24.760;2023-02-22T16:04:19;2.03;;;1.90;;
5752;SDS011;2901;42.140;24.760;2023-02-22T16:06:47;3.22;;;2.00;;
5752;SDS011;2901;42.140;24.760;2023-02-22T16:11:46;9.27;;;2.55;;
5752;SDS011;2901;42.140;24.760;2023-02-22T16:14:23;3.42;;;2.35;;
5752;SDS011;2901;42.140;24.760;2023-02-22T16:20:00;3.25;;;2.45;;
5752;SDS011;2901;42.140;24.760;2023-02-22T16:22:27;6.43;;;3.30;;
5752;SDS011;2901;42.140;24.760;2023-02-22T16:27:47;13.25;;;12.35;;
5752;SDS011;2901;42.140;24.760;2023-02-22T16:32:43;8.85;;;6.07;;
5752;SDS011;2901;42.140;24.760;2023-02-22T16:35:09;13.38;;;5.95;;
5752;SDS011;2901;42.140;24.760;2023-02-22T16:37:53;11.20;;;5.70;;
5752;SDS011;2901;42.140;24.760;2023-02-22T16:40:33;14.77;;;8.15;;
5752;SDS011;2901;42.140;24.760;2023-02-22T16:43:07;18.38;;;6.63;;
5752;SDS011;2901;42.140;24.760;2023-02-22T16:45:36;10.52;;;5.75;;
5752;SDS011;2901;42.140;24.760;2023-02-22T16:48:10;29.95;;;19.40;;
5752;SDS011;2901;42.140;24.760;2023-02-22T16:50:46;8.45;;;5.72;;
5752;SDS011;2901;42.140;24.760;2023-02-22T16:53:12;33.13;;;19.52;;
5752;SDS011;2901;42.140;24.760;2023-02-22T16:55:42;9.18;;;7.03;;
5752;SDS011;2901;42.140;24.760;2023-02-22T16:58:13;7.10;;;3.80;;
5752;SDS011;2901;42.140;24.760;2023-02-22T17:00:40;5.68;;;3.30;;
5752;SDS011;2901;42.140;24.760;2023-02-22T17:03:08;13.15;;;5.63;;
5752;SDS011;2901;42.140;24.760;2023-02-22T17:05:38;7.95;;;4.32;;
5752;SDS011;2901;42.140;24.760;2023-02-22T17:08:03;3.63;;;3.33;;
5752;SDS011;2901;42.140;24.760;2023-02-22T17:10:29;5.38;;;3.42;;
5752;SDS011;2901;42.140;24.760;2023-02-22T17:12:54;4.22;;;3.47;;
5752;SDS011;2901;42.140;24.760;2023-02-22T17:15:24;20.95;;;5.32;;
5752;SDS011;2901;42.140;24.760;2023-02-22T17:17:52;9.15;;;3.75;;
5752;SDS011;2901;42.140;24.760;2023-02-22T17:20:18;7.18;;;5.88;;
5752;SDS011;2901;42.140;24.760;2023-02-22T17:22:54;4.88;;;3.35;;
5752;SDS011;2901;42.140;24.760;2023-02-22T17:25:22;10.32;;;3.47;;
5752;SDS011;2901;42.140;24.760;2023-02-22T17:27:50;3.95;;;2.60;;
5752;SDS011;2901;42.140;24.760;2023-02-22T17:30:16;5.82;;;4.95;;
5752;SDS011;2901;42.140;24.760;2023-02-22T17:32:45;7.63;;;5.70;;
5752;SDS011;2901;42.140;24.760;2023-02-22T17:35:13;9.57;;;5.55;;
5752;SDS011;2901;42.140;24.760;2023-02-22T17:37:40;6.50;;;4.55;;
5752;SDS011;2901;42.140;24.760;2023-02-22T17:40:06;9.20;;;5.30;;
5752;SDS011;2901;42.140;24.760;2023-02-22T17:42:32;9.10;;;5.03;;
5752;SDS011;2901;42.140;24.760;2023-02-22T17:44:57;7.82;;;5.70;;
5752;SDS011;2901;42.140;24.760;2023-02-22T17:47:22;12.80;;;6.18;;
5752;SDS011;2901;42.140;24.760;2023-02-22T17:49:48;9.48;;;5.35;;
5752;SDS011;2901;42.140;24.760;2023-02-22T17:52:13;18.13;;;4.97;;
5752;SDS011;2901;42.140;24.760;2023-02-22T17:54:40;17.65;;;5.82;;
5752;SDS011;2901;42.140;24.760;2023-02-22T17:57:05;10.57;;;6.70;;
5752;SDS011;2901;42.140;24.760;2023-02-22T17:59:31;10.63;;;5.78;;